• Join FlightAware (Why Join?)
  • Login
  • US Flag 
12:26PM EDT


 

Airport Tracker/Info


-or-


 

Live Flight TrackerFlight Track Log ✈ UAL4693 ✈ 16-May-2014 ✈ KDTW - KIAH

Flight Track Log - Related Links

Times and Time Zones

All times are in EDT time to prevent confusion due to time zone crossing. See the UAL4693 flight status page for this flight to view local times or setup timezone preferences in your user account.

Time Position Orientation Groundspeed Altitude Reporting Facility
EDT Latitude Longitude Course Direction KTS MPH feet Rate Location/Type
06:16PM 42.2303 -83.3508 180° South 160 184 1,300  Level Cleveland Center
06:17PM 42.2722 -83.3511 360° North 208 239 2,600 1,920 Climbing Cleveland Center
06:18PM 42.3300 -83.3769 342° North 239 275 4,800 2,460 Climbing Cleveland Center
06:19PM 41.9683 -83.6496 197° South  Level Estimated
06:19PM 42.3536 -83.4600 291° West 254 292 7,600  Level Cleveland Center
06:20PM 41.8868 -83.7478 200° South  Level Estimated
06:20PM 42.3328 -83.5525 253° West 256 295 10,100  Level Cleveland Center
06:21PM 41.8051 -83.8458 180° South  Level Estimated
06:21PM 42.2639 -83.6206 216° Southwest 286 329 11,800  Level Cleveland Center
06:22PM 42.1767 -83.6156 178° South 320 368 13,100 1,260 Climbing Cleveland Center
06:23PM 42.0828 -83.6069 176° South 337 388 14,500 1,260 Climbing Cleveland Center
06:24PM 41.9858 -83.5978 176° South 346 398 15,800 1,260 Climbing Cleveland Center
06:25PM 41.8878 -83.5883 176° South 350 403 17,200 1,380 Climbing Cleveland Center
06:26PM 41.7672 -83.5764 176° South 360 414 18,700 1,380 Climbing Cleveland Center
06:27PM 41.6667 -83.5739 179° South 361 415 20,100 1,320 Climbing Cleveland Center
06:28PM 41.5686 -83.6028 192° South 361 415 21,500 1,260 Climbing Cleveland Center
06:29PM 41.4706 -83.6322 193° South 361 415 22,800 1,260 Climbing Cleveland Center
06:30PM 41.3806 -83.6906 206° Southwest 362 417 24,200 1,020 Climbing Cleveland Center
06:31PM 41.2731 -83.7689 209° Southwest 364 419 25,000 360 Climbing Cleveland Center
06:32PM 41.1769 -83.8375 208° Southwest 387 445 25,000 300 Level Cleveland Center
06:33PM 41.0897 -83.9008 209° Southwest 400 460 25,700 1,140 Climbing Cleveland Center
06:34PM 40.9750 -83.9822 208° Southwest 389 448 27,400 1,500 Climbing Cleveland Center
06:35PM 40.8853 -84.0483 209° Southwest 371 427 28,800 1,140 Climbing Cleveland Center
06:36PM 40.8044 -84.1050 208° Southwest 364 419 29,800 1,020 Climbing Cleveland Center
06:37PM 40.6992 -84.1831 209° Southwest 363 418 31,000 960 Climbing Cleveland Center
06:38PM 40.6289 -84.2800 226° Southwest 364 419 31,900 480 Climbing Cleveland Center
06:39PM 40.5547 -84.3794 226° Southwest 374 430 32,000  Climbing Cleveland Center
06:40PM 40.4778 -84.4856 226° Southwest 390 449 32,000  Level Cleveland Center
06:41PM 40.3967 -84.5956 226° Southwest 411 473 32,000  Level Cleveland Center
06:42PM 40.3000 -84.7267 226° Southwest 416 479 32,000  Level Cleveland Center
06:44PM 40.2197 -84.8344 226° Southwest 416 479 32,000  Level Cleveland Center
06:45PM 40.1389 -84.9422 226° Southwest 416 479 32,000  Level Cleveland Center
06:46PM 40.0564 -85.0517 225° Southwest 420 483 32,000  Level Cleveland Center
06:47PM 39.9758 -85.1622 226° Southwest 421 484 32,000  Level Cleveland Center
06:48PM 39.8750 -85.3108 229° Southwest 420 483 32,000 540 Level Indianapolis Center
06:49PM 39.7817 -85.4481 229° Southwest 421 484 33,300 1,500 Climbing Indianapolis Center
06:50PM 39.7103 -85.5522 228° Southwest 399 459 35,200 1,260 Climbing Indianapolis Center
06:51PM 39.6442 -85.6511 229° Southwest 372 428 36,000 360 Climbing Indianapolis Center
06:52PM 39.5744 -85.7522 228° Southwest 370 426 36,000  Level Indianapolis Center
06:53PM 39.5008 -85.8586 228° Southwest 385 443 36,000  Level Indianapolis Center
06:54PM 39.4244 -85.9706 229° Southwest 404 465 36,000  Level Indianapolis Center
06:55PM 39.3450 -86.0842 228° Southwest 414 476 36,000  Level Indianapolis Center
06:56PM 39.2483 -86.2228 228° Southwest 425 489 36,000  Level Indianapolis Center
06:57PM 39.1683 -86.3392 228° Southwest 429 494 36,000  Level Indianapolis Center
06:58PM 39.0889 -86.4531 228° Southwest 429 494 36,000  Level Indianapolis Center
06:59PM 39.0089 -86.5639 227° Southwest 426 490 36,000  Level Indianapolis Center
07:00PM 38.9300 -86.6764 228° Southwest 421 484 36,000  Level Indianapolis Center
07:01PM 38.8514 -86.7867 228° Southwest 420 483 36,000  Level Indianapolis Center
07:02PM 38.7739 -86.8953 228° Southwest 416 479 36,000  Level Indianapolis Center
07:03PM 38.6806 -87.0253 227° Southwest 416 479 36,000  Level Indianapolis Center
07:04PM 38.6025 -87.1333 227° Southwest 416 479 36,000  Level Indianapolis Center
07:06PM 38.5247 -87.2411 227° Southwest 416 479 36,000  Level Indianapolis Center
07:07PM 38.4475 -87.3483 227° Southwest 416 479 36,000  Level Indianapolis Center
07:08PM 38.3700 -87.4561 227° Southwest 416 479 36,000  Level Indianapolis Center
07:09PM 38.2908 -87.5647 227° Southwest 416 479 36,000  Level Indianapolis Center
07:10PM 38.1944 -87.6967 227° Southwest 422 486 36,000  Level Indianapolis Center
07:11PM 38.1136 -87.8067 227° Southwest 422 486 36,000  Level Indianapolis Center
07:12PM 38.0331 -87.9164 227° Southwest 422 486 36,000  Level Indianapolis Center
07:13PM 37.9531 -88.0250 227° Southwest 422 486 36,000  Level Indianapolis Center
07:14PM 37.8717 -88.1347 227° Southwest 423 487 36,000  Level Indianapolis Center
07:15PM 37.7914 -88.2431 227° Southwest 422 486 36,000  Level Indianapolis Center
07:16PM 37.7089 -88.3536 227° Southwest 427 491 36,000  Level Indianapolis Center
07:17PM 37.6136 -88.4811 227° Southwest 424 488 36,000  Level Memphis Center
07:18PM 37.5314 -88.5900 226° Southwest 429 494 36,000  Level Memphis Center
07:19PM 37.4497 -88.7000 227° Southwest 429 494 36,000  Level Memphis Center
07:20PM 37.3683 -88.8061 226° Southwest 427 491 36,000  Level Memphis Center
07:21PM 37.2886 -88.9108 226° Southwest 420 483 36,000  Level Memphis Center
07:22PM 37.2106 -89.0158 227° Southwest 417 480 36,000  Level Memphis Center
07:23PM 37.1164 -89.1372 226° Southwest 411 473 36,000  Level Memphis Center
07:24PM 37.0397 -89.2378 226° Southwest 404 465 36,000  Level Memphis Center
07:25PM 36.9633 -89.3381 226° Southwest 403 464 36,000  Level Memphis Center
07:26PM 36.8864 -89.4375 226° Southwest 403 464 36,000  Level Memphis Center
07:27PM 36.8106 -89.5372 226° Southwest 403 464 36,000  Level Memphis Center
07:28PM 36.7178 -89.6553 226° Southwest 402 463 36,000  Level Memphis Center
07:29PM 36.6406 -89.7558 226° Southwest 402 463 36,000  Level Memphis Center
07:30PM 36.5628 -89.8550 226° Southwest 402 463 36,000  Level Memphis Center
07:31PM 36.4847 -89.9547 226° Southwest 403 464 36,000  Level Memphis Center
07:32PM 36.4050 -90.0550 225° Southwest 405 466 36,000  Level Memphis Center
07:33PM 36.3264 -90.1558 226° Southwest 406 467 36,000  Level Memphis Center
07:34PM 36.2303 -90.2767 225° Southwest 407 468 36,000  Level Memphis Center
07:35PM 36.1489 -90.3786 225° Southwest 414 476 36,000  Level Memphis Center
07:36PM 36.0683 -90.4814 226° Southwest 414 476 36,000  Level Memphis Center
07:37PM 35.9861 -90.5825 225° Southwest 415 478 36,000  Level Memphis Center
07:39PM 35.9044 -90.6853 226° Southwest 415 478 36,000  Level Memphis Center
07:40PM 35.8058 -90.8083 225° Southwest 418 481 36,000  Level Memphis Center
07:41PM 35.7231 -90.9089 225° Southwest 418 481 36,000  Level Memphis Center
07:42PM 35.6494 -91.0014 226° Southwest 418 481 36,000  Level Memphis Center
07:43PM 35.5678 -91.1019 225° Southwest 418 481 36,000  Level Memphis Center
07:44PM 35.4714 -91.2206 225° Southwest 414 476 36,000  Level Memphis Center
07:45PM 35.3936 -91.3172 225° Southwest 413 475 36,000  Level Memphis Center
07:46PM 35.3111 -91.4169 225° Southwest 413 475 36,000  Level Memphis Center
07:47PM 35.2292 -91.5169 225° Southwest 413 475 36,000  Level Memphis Center
07:48PM 35.1472 -91.6178 225° Southwest 413 475 36,000  Level Memphis Center
07:49PM 35.0472 -91.7378 225° Southwest 413 475 36,000  Level Memphis Center
07:50PM 34.9650 -91.8361 224° Southwest 414 476 36,000  Level Memphis Center
07:51PM 34.8831 -91.9344 225° Southwest 414 476 36,000  Level Memphis Center
07:52PM 34.8000 -92.0347 225° Southwest 414 476 36,000  Level Memphis Center
07:53PM 34.7156 -92.1347 224° Southwest 418 481 36,000  Level Memphis Center
07:54PM 34.6031 -92.1944 204° Southwest 452 520 36,000  Level Memphis Center
07:55PM 34.4722 -92.2192 189° South 471 542 36,000  Level Memphis Center
07:56PM 34.3169 -92.2492 189° South 471 542 36,000  Level Memphis Center
07:57PM 34.1861 -92.2728 188° South 471 542 36,000  Level Memphis Center
07:58PM 34.0494 -92.2992 189° South 472 543 36,000  Level Memphis Center
07:59PM 33.9169 -92.3228 188° South 473 544 36,000  Level Memphis Center
08:00PM 33.7867 -92.3475 189° South 474 545 36,000  Level Memphis Center
08:01PM 33.6553 -92.3714 189° South 474 545 36,000  Level Memphis Center
08:03PM 33.4744 -92.4042 189° South 474 545 36,000  Level Fort Worth Center
08:04PM 33.3447 -92.4289 189° South 474 545 36,000  Level Fort Worth Center
08:05PM 33.2144 -92.4522 189° South 473 544 36,000  Level Fort Worth Center
08:06PM 33.0828 -92.4758 189° South 473 544 36,000  Level Fort Worth Center
08:07PM 32.9256 -92.5042 189° South 474 545 36,000  Level Fort Worth Center
08:08PM 32.7931 -92.5286 189° South 477 549 36,000  Level Fort Worth Center
08:09PM 32.6619 -92.5525 189° South 477 549 36,000  Level Fort Worth Center
08:10PM 32.5303 -92.5761 189° South 477 549 36,000  Level Fort Worth Center
08:11PM 32.3814 -92.6047 189° South 476 548 36,000  Level Fort Worth Center
08:12PM 32.2517 -92.6267 188° South 475 547 36,000  Level Fort Worth Center
08:13PM 32.1208 -92.6508 189° South 473 544 36,000 -60 Level Fort Worth Center
08:14PM 32.0092 -92.6717 189° South 473 544 35,900  Descending Houston Center
08:15PM 31.9019 -92.7478 211° Southwest 453 521 36,000  Climbing Houston Center
08:16PM 31.8072 -92.8375 219° Southwest 440 506 36,000  Level Houston Center
08:17PM 31.7128 -92.9289 219° Southwest 440 506 36,000  Level Houston Center
08:18PM 31.6181 -93.0211 220° Southwest 441 507 36,000  Level Houston Center
08:19PM 31.5047 -93.1292 219° Southwest 440 506 36,000  Level Houston Center
08:20PM 31.4106 -93.2194 219° Southwest 441 507 36,000  Level Houston Center
08:21PM 31.3267 -93.2994 219° Southwest 440 506 36,000 -180 Level Houston Center
08:22PM 31.2231 -93.3972 219° Southwest 436 502 35,700 -900 Descending Houston Center
08:23PM 31.1319 -93.4856 220° Southwest 429 494 34,200 -1,680 Descending Houston Center
08:24PM 31.0453 -93.5678 219° Southwest 409 471 32,300 -2,400 Descending Houston Center
08:25PM 30.9356 -93.6708 219° Southwest 424 488 29,300 -2,760 Descending Houston Center
08:26PM 30.8403 -93.7614 219° Southwest 442 509 26,700 -2,520 Descending Houston Center
08:27PM 30.7444 -93.8508 219° Southwest 444 511 24,100 -2,520 Descending Houston Center
08:28PM 30.6536 -93.9364 219° Southwest 431 496 21,500 -2,520 Descending Houston Center
08:29PM 30.5658 -94.0189 219° Southwest 413 475 18,900 -2,760 Descending Houston Center
08:30PM 30.4653 -94.1131 219° Southwest 391 450 15,900 -2,760 Descending Houston Center
08:31PM 30.3842 -94.1881 219° Southwest 380 437 13,300 -2,280 Descending Houston Center
08:32PM 30.3578 -94.2128 219° Southwest 366 421 12,900 -1,080 Descending Houston Center
08:32PM 30.3058 -94.2608 219° Southwest 368 423 12,200 -780 Descending Houston Center
08:33PM 30.2597 -94.3056 220° Southwest 362 417 12,000 -240 Descending Houston Center
08:33PM 30.2292 -94.3328 218° Southwest 358 412 12,000  Level Houston Center
08:34PM 30.1897 -94.3850 229° Southwest 350 403 12,000 -120 Level Houston Center
08:34PM 30.1778 -94.4233 250° West 344 396 11,900 -300 Descending Houston Center
08:35PM 30.1514 -94.4867 244° Southwest 323 372 11,700 -600 Descending Houston Center
08:35PM 30.1400 -94.5200 248° West 307 353 11,300 -1,200 Descending Houston Center
08:36PM 30.1217 -94.5678 246° West 276 318 10,500 -1,500 Descending Houston Center
08:37PM 30.1092 -94.5997 246° West 277 319 9,800 -1,620 Descending Houston Center
08:37PM 30.0908 -94.6614 251° West 272 313 8,700 -1,680 Descending Houston Center
08:38PM 30.0797 -94.6992 251° West 276 318 8,100 -780 Descending Houston Center
08:38PM 30.0689 -94.7389 253° West 270 311 8,000 -120 Descending Houston Center
08:39PM 30.0594 -94.7794 255° West 266 306 8,000 -300 Level Houston Center
08:39PM 30.0533 -94.8183 260° West 257 296 7,700 -1,080 Descending Houston Center
08:40PM 30.0453 -94.8594 257° West 258 297 6,900 -1,500 Descending Houston Center
08:40PM 30.0375 -94.8950 256° West 248 285 6,200 -900 Descending Houston Center
08:41PM 30.0317 -94.9347 260° West 245 282 6,000 -720 Descending Houston Center
08:42PM 30.0175 -95.0006 256° West 216 249 5,100 -720 Descending Houston Center
08:42PM 30.0111 -95.0383 259° West 211 243 5,000 -600 Descending Houston Center
08:43PM 30.0053 -95.0650 256° West 211 243 4,500 -1,140 Descending Houston Center
08:43PM 29.9983 -95.1028 258° West 205 236 3,900 -1,320 Descending Houston Center
08:44PM 29.9925 -95.1417 260° West 209 241 3,200 -1,020 Descending Houston Center
08:44PM 29.9936 -95.1661 273° West 182 209 2,900 -900 Descending Houston Center
08:45PM 29.9928 -95.1969 268° West 183 211 2,300 -1,020 Descending Houston Center
08:45PM 29.9925 -95.2217 269° West 168 193 1,900 -900 Descending Houston Center
08:46PM 29.9933 -95.2506 272° West 175 201 1,400 -900 Descending Houston Center
08:46PM 29.9931 -95.2722 269° West 140 161 1,000 -720 Descending Houston Center
08:47PM 29.9931 -95.2953 270° West 158 182 700 -360 Descending Houston Center
08:48PM 29.9933 -95.3456 270° West 150 173 400 -300 Descending Houston Center